createdAt,value
2023-03-02T00:02:02.288Z,88.16
2023-03-02T00:04:40.024Z,88.50
2023-03-02T00:07:11.488Z,88.77
2023-03-02T00:09:40.124Z,88.69
2023-03-02T00:12:09.195Z,88.18
2023-03-02T00:14:39.047Z,87.02
2023-03-02T00:17:10.803Z,85.63
2023-03-02T00:19:39.248Z,86.24
2023-03-02T00:22:09.474Z,86.19
2023-03-02T00:24:38.300Z,85.64
2023-03-02T00:27:06.528Z,86.69
2023-03-02T00:29:35.000Z,88.54
2023-03-02T00:32:04.175Z,88.73
2023-03-02T00:34:32.576Z,88.22
2023-03-02T00:37:00.853Z,88.72
2023-03-02T00:39:29.001Z,90.27
2023-03-02T00:41:57.311Z,92.02
2023-03-02T00:44:25.479Z,91.90
2023-03-02T00:46:53.644Z,91.73
2023-03-02T00:49:22.038Z,91.39
2023-03-02T00:51:50.300Z,91.15
2023-03-02T00:54:18.488Z,90.85
2023-03-02T00:56:46.649Z,90.67
2023-03-02T00:59:27.734Z,90.96
2023-03-02T01:02:11.004Z,89.92
2023-03-02T01:04:41.654Z,89.53
2023-03-02T01:07:26.307Z,89.02
2023-03-02T01:09:54.527Z,88.14
2023-03-02T01:12:22.803Z,87.81
2023-03-02T01:14:51.180Z,87.99
2023-03-02T01:17:22.270Z,87.97
2023-03-02T01:19:50.420Z,87.78
2023-03-02T01:22:19.369Z,88.18
2023-03-02T01:24:47.496Z,87.73
2023-03-02T01:27:15.787Z,87.90
2023-03-02T01:29:43.906Z,86.95
2023-03-02T01:32:12.075Z,86.51
2023-03-02T01:34:40.737Z,86.67
2023-03-02T01:37:08.892Z,86.85
2023-03-02T01:39:37.029Z,86.77
2023-03-02T01:42:05.284Z,86.82
2023-03-02T01:44:41.718Z,87.28
2023-03-02T01:47:15.180Z,87.64
2023-03-02T01:49:57.641Z,87.60
2023-03-02T01:52:29.293Z,87.63
2023-03-02T01:55:01.927Z,87.28
2023-03-02T01:57:35.033Z,87.99
2023-03-02T02:00:09.000Z,88.11
2023-03-02T02:02:42.145Z,88.62
2023-03-02T02:05:14.189Z,88.57
2023-03-02T02:07:42.931Z,88.69
2023-03-02T02:10:12.456Z,88.93
2023-03-02T02:12:40.703Z,88.03
2023-03-02T02:15:09.366Z,87.44
2023-03-02T02:17:37.750Z,88.26
2023-03-02T02:20:20.931Z,89.07
2023-03-02T02:22:54.847Z,89.64
2023-03-02T02:25:55.620Z,89.75
2023-03-02T02:28:45.264Z,89.93
2023-03-02T02:31:22.668Z,89.41
2023-03-02T02:33:56.387Z,89.25
2023-03-02T02:36:34.009Z,89.81
2023-03-02T02:39:08.721Z,89.94
2023-03-02T02:41:39.962Z,90.75
2023-03-02T02:44:20.258Z,90.41
2023-03-02T02:46:48.436Z,89.07
2023-03-02T02:49:30.814Z,87.96
2023-03-02T02:51:59.708Z,89.20
2023-03-02T02:54:30.314Z,89.89
2023-03-02T02:57:01.810Z,89.73
2023-03-02T02:59:35.553Z,90.89
2023-03-02T03:02:04.205Z,90.89
2023-03-02T03:04:33.557Z,90.11
2023-03-02T03:07:06.359Z,90.04
2023-03-02T03:09:34.926Z,90.46
2023-03-02T03:12:11.234Z,90.12
2023-03-02T03:14:41.289Z,89.52
2023-03-02T03:17:12.997Z,88.98
2023-03-02T03:20:09.551Z,87.91
2023-03-02T03:22:39.813Z,87.53
2023-03-02T03:25:09.838Z,87.46
2023-03-02T03:27:38.035Z,87.42
2023-03-02T03:30:07.851Z,87.09
2023-03-02T03:32:36.936Z,86.75
2023-03-02T03:35:08.893Z,86.38
2023-03-02T03:37:40.011Z,86.39
2023-03-02T03:40:10.617Z,86.17
2023-03-02T03:42:40.665Z,86.06
2023-03-02T03:45:09.827Z,86.37
2023-03-02T03:47:38.880Z,86.11
2023-03-02T03:50:08.592Z,85.84
2023-03-02T03:52:37.453Z,86.26
2023-03-02T03:55:12.793Z,86.48
2023-03-02T03:57:42.157Z,86.51
2023-03-02T04:00:15.095Z,86.71
2023-03-02T04:02:47.247Z,86.77
2023-03-02T04:05:17.208Z,87.20
2023-03-02T04:07:46.161Z,86.98
2023-03-02T04:10:14.507Z,86.13
2023-03-02T04:12:44.126Z,86.12
2023-03-02T04:15:16.259Z,86.51
2023-03-02T04:17:46.146Z,86.82
2023-03-02T04:20:17.846Z,87.10
2023-03-02T04:22:51.861Z,87.14
2023-03-02T04:25:23.316Z,87.26
2023-03-02T04:27:54.418Z,87.16
2023-03-02T04:30:26.470Z,87.05
2023-03-02T04:32:57.548Z,87.14
2023-03-02T04:35:27.419Z,87.07
2023-03-02T04:37:56.210Z,87.06
2023-03-02T04:40:25.227Z,86.72
2023-03-02T04:42:53.489Z,85.84
2023-03-02T04:45:21.772Z,85.04
2023-03-02T04:47:49.928Z,84.80
2023-03-02T04:50:18.089Z,84.21
2023-03-02T04:52:46.189Z,84.60
2023-03-02T04:55:23.659Z,84.44
2023-03-02T04:57:51.761Z,84.31
2023-03-02T05:00:21.261Z,84.51
2023-03-02T05:02:49.834Z,84.19
2023-03-02T05:05:24.438Z,83.72
2023-03-02T05:07:53.153Z,83.77
2023-03-02T05:10:24.316Z,83.84
2023-03-02T05:13:02.784Z,84.11
2023-03-02T05:15:39.894Z,84.30
2023-03-02T05:18:11.138Z,84.87
2023-03-02T05:20:39.813Z,85.99
2023-03-02T05:23:09.940Z,86.08
2023-03-02T05:25:39.143Z,84.99
2023-03-02T05:28:07.406Z,84.67
2023-03-02T05:30:37.997Z,84.81
2023-03-02T05:33:06.830Z,84.57
2023-03-02T05:35:35.510Z,84.87
2023-03-02T05:38:04.620Z,85.11
2023-03-02T05:40:33.292Z,86.22
2023-03-02T05:43:02.294Z,86.12
2023-03-02T05:45:36.929Z,85.52
2023-03-02T05:48:06.407Z,85.74
2023-03-02T05:50:34.664Z,85.36
2023-03-02T05:53:03.073Z,85.16
2023-03-02T05:55:31.506Z,84.85
2023-03-02T05:57:59.647Z,84.93
2023-03-02T06:00:28.043Z,84.66
2023-03-02T06:02:56.928Z,84.40
2023-03-02T06:05:25.263Z,84.23
2023-03-02T06:07:54.008Z,83.85
2023-03-02T06:10:22.230Z,83.97
2023-03-02T06:12:50.750Z,83.20
2023-03-02T06:15:18.992Z,83.51
2023-03-02T06:17:47.577Z,82.89
2023-03-02T06:20:16.788Z,82.38
2023-03-02T06:22:47.037Z,81.35
2023-03-02T06:25:18.558Z,80.68
2023-03-02T06:27:47.644Z,79.40
2023-03-02T06:30:18.038Z,79.39
2023-03-02T06:32:46.313Z,79.53
2023-03-02T06:35:15.464Z,80.09
2023-03-02T06:37:44.436Z,79.02
2023-03-02T06:40:14.158Z,79.08
2023-03-02T06:42:43.187Z,79.15
2023-03-02T06:45:11.723Z,78.96
2023-03-02T06:47:39.942Z,77.80
2023-03-02T06:50:09.520Z,77.53
2023-03-02T06:52:37.616Z,77.66
2023-03-02T06:55:06.905Z,78.46
2023-03-02T06:57:35.174Z,78.22
2023-03-02T07:00:10.238Z,77.43
2023-03-02T07:02:38.552Z,76.72
2023-03-02T07:05:07.718Z,76.72
2023-03-02T07:07:36.269Z,77.12
2023-03-02T07:10:06.848Z,76.67
2023-03-02T07:12:35.515Z,75.49
2023-03-02T07:15:04.711Z,75.51
2023-03-02T07:17:34.139Z,74.43
2023-03-02T07:20:04.116Z,74.26
2023-03-02T07:22:33.044Z,75.87
2023-03-02T07:25:01.195Z,75.43
2023-03-02T07:27:29.557Z,75.14
2023-03-02T07:29:57.690Z,74.23
2023-03-02T07:32:26.184Z,73.86
2023-03-02T07:34:54.520Z,74.22
2023-03-02T07:37:22.921Z,74.56
2023-03-02T07:39:51.118Z,73.98
2023-03-02T07:42:19.334Z,73.28
2023-03-02T07:44:49.263Z,73.34
2023-03-02T07:47:17.392Z,72.66
2023-03-02T07:49:45.806Z,71.52
2023-03-02T07:52:14.027Z,71.75
2023-03-02T07:54:42.490Z,70.65
2023-03-02T07:57:11.069Z,70.46
2023-03-02T07:59:39.126Z,70.52
2023-03-02T08:02:07.457Z,69.32
2023-03-02T08:04:36.095Z,69.47
2023-03-02T08:07:04.264Z,70.08
2023-03-02T08:09:32.859Z,71.24
2023-03-02T08:12:00.971Z,69.34
2023-03-02T08:14:29.171Z,69.23
2023-03-02T08:16:57.464Z,68.56
2023-03-02T08:19:26.533Z,68.94
2023-03-02T08:21:54.666Z,67.42
2023-03-02T08:24:22.826Z,65.29
2023-03-02T08:26:51.000Z,65.41
2023-03-02T08:29:19.478Z,66.30
2023-03-02T08:31:47.649Z,66.25
2023-03-02T08:34:15.803Z,65.15
2023-03-02T08:36:44.780Z,62.96
2023-03-02T08:39:13.602Z,63.57
2023-03-02T08:41:41.794Z,62.86
2023-03-02T08:44:09.934Z,62.67
2023-03-02T08:46:38.218Z,62.17
2023-03-02T08:49:06.378Z,63.23
2023-03-02T08:51:35.180Z,62.81
2023-03-02T08:54:03.584Z,60.71
2023-03-02T08:56:35.548Z,60.13
2023-03-02T08:59:11.119Z,59.92
2023-03-02T09:01:40.492Z,61.42
2023-03-02T09:04:11.450Z,59.93
2023-03-02T09:06:43.210Z,58.91
2023-03-02T09:09:13.484Z,59.13
2023-03-02T09:11:42.681Z,58.97
2023-03-02T09:14:11.128Z,58.24
2023-03-02T09:16:39.765Z,58.49
2023-03-02T09:19:08.202Z,57.52
2023-03-02T09:21:38.448Z,57.06
2023-03-02T09:24:06.870Z,57.43
2023-03-02T09:26:36.348Z,56.28
2023-03-02T09:29:06.939Z,55.53
2023-03-02T09:31:36.491Z,58.34
2023-03-02T09:34:05.904Z,53.98
2023-03-02T09:36:34.743Z,53.71
2023-03-02T09:39:08.677Z,52.65
2023-03-02T09:41:57.610Z,53.48
2023-03-02T09:45:03.532Z,51.17
2023-03-02T09:48:10.376Z,50.41
2023-03-02T09:50:40.694Z,48.57
2023-03-02T09:53:11.864Z,50.77
2023-03-02T09:55:40.103Z,50.88
2023-03-02T09:58:15.952Z,50.46
2023-03-02T10:00:45.660Z,48.62
2023-03-02T10:03:18.585Z,48.08
2023-03-02T10:05:49.451Z,47.64
2023-03-02T10:08:21.896Z,47.05
2023-03-02T10:11:11.796Z,46.26
2023-03-02T10:13:54.837Z,46.96
2023-03-02T10:16:45.920Z,44.38
2023-03-02T10:19:29.904Z,42.44
2023-03-02T10:22:15.843Z,43.30
2023-03-02T10:25:08.584Z,42.20
2023-03-02T10:27:44.501Z,43.79
2023-03-02T10:30:34.063Z,42.98
2023-03-02T10:33:09.906Z,42.54
2023-03-02T10:35:45.084Z,44.19
2023-03-02T10:38:18.069Z,44.29
2023-03-02T10:40:46.188Z,44.25
2023-03-02T10:43:20.221Z,44.45
2023-03-02T10:46:02.611Z,44.55
2023-03-02T10:48:31.105Z,45.66
2023-03-02T10:51:00.652Z,44.76
2023-03-02T10:53:29.313Z,43.29
2023-03-02T10:55:57.526Z,43.68
2023-03-02T10:58:32.148Z,43.19
2023-03-02T11:01:03.830Z,41.93
2023-03-02T11:03:33.680Z,42.14
2023-03-02T11:06:20.414Z,42.91
2023-03-02T11:09:02.551Z,43.41
2023-03-02T11:11:31.774Z,42.08
2023-03-02T11:14:15.957Z,41.86
2023-03-02T11:16:44.680Z,43.38
2023-03-02T11:19:38.078Z,43.12
2023-03-02T11:22:23.713Z,43.41
2023-03-02T11:24:56.354Z,43.66
2023-03-02T11:27:30.017Z,43.63
2023-03-02T11:30:02.963Z,42.24
2023-03-02T11:32:42.042Z,40.90
2023-03-02T11:35:29.520Z,41.61
2023-03-02T11:38:10.499Z,43.89
2023-03-02T11:40:50.000Z,41.89
2023-03-02T11:43:18.134Z,42.61
2023-03-02T11:45:51.976Z,42.96
2023-03-02T11:48:31.000Z,43.73
2023-03-02T11:51:06.707Z,43.14
2023-03-02T11:53:43.830Z,43.65
2023-03-02T11:56:12.883Z,42.99
2023-03-02T11:58:44.183Z,43.81
2023-03-02T12:01:19.394Z,44.79
2023-03-02T12:03:48.134Z,43.74
2023-03-02T12:06:22.615Z,43.31
2023-03-02T12:08:55.726Z,43.41
2023-03-02T12:11:23.875Z,43.41
2023-03-02T12:13:54.781Z,43.27
2023-03-02T12:16:37.309Z,45.17
2023-03-02T12:19:28.200Z,43.83
2023-03-02T12:21:58.069Z,43.63
2023-03-02T12:24:32.234Z,45.41
2023-03-02T12:27:16.704Z,46.02
2023-03-02T12:30:18.856Z,46.22
2023-03-02T12:33:10.426Z,45.01
2023-03-02T12:35:39.380Z,44.26
2023-03-02T12:38:31.233Z,44.09
2023-03-02T12:41:26.291Z,44.05
2023-03-02T12:44:23.895Z,44.36
2023-03-02T12:46:52.190Z,44.81
2023-03-02T12:49:50.360Z,44.64
2023-03-02T12:52:28.802Z,46.88
2023-03-02T12:55:20.310Z,45.91
2023-03-02T12:57:50.773Z,46.95
2023-03-02T13:00:23.154Z,46.42
2023-03-02T13:02:54.873Z,46.25
2023-03-02T13:05:26.927Z,46.37
2023-03-02T13:08:09.537Z,47.48
2023-03-02T13:11:04.318Z,47.56
2023-03-02T13:13:32.702Z,48.24
2023-03-02T13:16:04.725Z,47.55
2023-03-02T13:18:36.805Z,48.25
2023-03-02T13:21:13.182Z,48.03
2023-03-02T13:23:50.381Z,46.92
2023-03-02T13:26:36.746Z,47.69
2023-03-02T13:29:31.974Z,47.52
2023-03-02T13:32:43.501Z,48.19
2023-03-02T13:35:26.541Z,48.29
2023-03-02T13:37:56.896Z,47.83
2023-03-02T13:40:30.008Z,48.33
2023-03-02T13:42:58.134Z,49.15
2023-03-02T13:45:32.145Z,48.26
2023-03-02T13:48:15.453Z,48.26
2023-03-02T13:50:51.717Z,48.58
2023-03-02T13:53:20.657Z,48.41
2023-03-02T13:55:49.263Z,48.67
2023-03-02T13:58:19.510Z,48.68
2023-03-02T14:00:48.385Z,49.28
2023-03-02T14:03:26.799Z,49.28
2023-03-02T14:05:56.600Z,49.09
2023-03-02T14:08:25.229Z,49.49
2023-03-02T14:10:57.563Z,49.93
2023-03-02T14:13:37.972Z,50.15
2023-03-02T14:16:06.968Z,49.46
2023-03-02T14:18:35.007Z,49.91
2023-03-02T14:21:03.606Z,49.97
2023-03-02T14:23:32.132Z,50.14
2023-03-02T14:26:00.337Z,50.26
2023-03-02T14:28:33.047Z,50.56
2023-03-02T14:31:01.430Z,50.52
2023-03-02T14:33:29.570Z,50.39
2023-03-02T14:35:58.882Z,50.37
2023-03-02T14:38:27.936Z,50.41
2023-03-02T14:40:57.168Z,50.40
2023-03-02T14:43:25.450Z,50.59
2023-03-02T14:45:53.716Z,50.77
2023-03-02T14:48:22.092Z,50.83
2023-03-02T14:50:51.743Z,50.82
2023-03-02T14:53:28.125Z,51.58
2023-03-02T14:55:56.445Z,51.84
2023-03-02T14:58:32.832Z,51.91
2023-03-02T15:01:01.245Z,52.33
2023-03-02T15:03:29.620Z,52.46
2023-03-02T15:06:02.160Z,52.90
2023-03-02T15:08:30.627Z,53.49
2023-03-02T15:10:59.026Z,53.22
2023-03-02T15:13:27.350Z,52.92
2023-03-02T15:15:56.702Z,53.38
2023-03-02T15:18:24.867Z,53.33
2023-03-02T15:20:52.962Z,53.65
2023-03-02T15:23:21.311Z,53.66
2023-03-02T15:25:49.403Z,54.02
2023-03-02T15:28:17.515Z,54.12
2023-03-02T15:30:46.925Z,54.14
2023-03-02T15:33:15.040Z,54.61
2023-03-02T15:35:44.639Z,54.58
2023-03-02T15:38:13.086Z,54.81
2023-03-02T15:40:41.189Z,54.49
2023-03-02T15:43:09.609Z,54.62
2023-03-02T15:45:37.959Z,55.00
2023-03-02T15:48:06.624Z,54.98
2023-03-02T15:50:34.798Z,55.56
2023-03-02T15:53:02.881Z,55.65
2023-03-02T15:55:31.087Z,55.43
2023-03-02T15:58:00.114Z,55.62
2023-03-02T16:00:28.235Z,55.90
2023-03-02T16:02:56.471Z,55.80
2023-03-02T16:05:24.649Z,55.91
2023-03-02T16:07:52.775Z,57.03
2023-03-02T16:10:21.280Z,57.44
2023-03-02T16:12:49.458Z,57.42
2023-03-02T16:15:17.955Z,57.61
2023-03-02T16:17:46.225Z,58.51
2023-03-02T16:20:14.328Z,58.71
2023-03-02T16:22:42.691Z,59.35
2023-03-02T16:25:11.518Z,59.88
2023-03-02T16:27:39.687Z,60.96
2023-03-02T16:30:09.398Z,61.70
2023-03-02T16:32:38.214Z,62.85
2023-03-02T16:35:09.202Z,60.36
2023-03-02T16:37:37.429Z,61.46
2023-03-02T16:40:06.159Z,61.64
2023-03-02T16:42:34.411Z,62.73
2023-03-02T16:45:02.718Z,62.76
2023-03-02T16:47:30.835Z,63.20
2023-03-02T16:49:59.039Z,62.34
2023-03-02T16:52:27.205Z,63.19
2023-03-02T16:54:55.451Z,61.94
2023-03-02T16:57:23.666Z,61.85
2023-03-02T16:59:52.264Z,62.34
2023-03-02T17:02:20.430Z,61.49
2023-03-02T17:04:48.568Z,62.18
2023-03-02T17:07:16.768Z,62.36
2023-03-02T17:09:44.916Z,62.65
2023-03-02T17:12:13.062Z,62.61
2023-03-02T17:14:41.285Z,62.91
2023-03-02T17:17:09.913Z,63.06
2023-03-02T17:19:38.562Z,63.72
2023-03-02T17:22:06.777Z,63.74
2023-03-02T17:24:35.225Z,64.00
2023-03-02T17:27:05.445Z,63.49
2023-03-02T17:29:36.925Z,64.93
2023-03-02T17:32:05.310Z,65.77
2023-03-02T17:34:33.922Z,64.78
2023-03-02T17:37:02.237Z,64.54
2023-03-02T17:39:30.406Z,65.48
2023-03-02T17:41:58.732Z,65.39
2023-03-02T17:44:27.985Z,65.67
2023-03-02T17:46:56.163Z,65.17
2023-03-02T17:49:24.439Z,65.45
2023-03-02T17:51:52.639Z,66.13
2023-03-02T17:54:20.705Z,65.91
2023-03-02T17:56:48.966Z,66.43
2023-03-02T17:59:17.356Z,66.24
2023-03-02T18:01:45.585Z,66.73
2023-03-02T18:04:14.027Z,67.00
2023-03-02T18:06:42.146Z,66.36
2023-03-02T18:09:10.388Z,66.36
2023-03-02T18:11:41.559Z,66.90
2023-03-02T18:14:14.718Z,67.15
2023-03-02T18:16:42.732Z,67.31
2023-03-02T18:19:10.921Z,66.96
2023-03-02T18:21:41.902Z,67.76
2023-03-02T18:24:10.330Z,67.67
2023-03-02T18:26:38.640Z,70.40
2023-03-02T18:29:07.599Z,73.09
2023-03-02T18:31:35.751Z,74.29
2023-03-02T18:34:04.037Z,76.20
2023-03-02T18:36:32.283Z,77.50
2023-03-02T18:39:00.915Z,77.65
2023-03-02T18:41:30.422Z,77.25
2023-03-02T18:44:01.435Z,76.90
2023-03-02T18:46:31.520Z,74.62
2023-03-02T18:49:01.206Z,73.34
2023-03-02T18:51:29.532Z,73.97
2023-03-02T18:53:57.734Z,76.19
2023-03-02T18:56:26.521Z,75.06
2023-03-02T18:58:54.727Z,73.84
2023-03-02T19:01:23.474Z,73.62
2023-03-02T19:03:53.597Z,76.23
2023-03-02T19:06:23.164Z,76.81
2023-03-02T19:08:51.289Z,76.38
2023-03-02T19:11:19.561Z,75.26
2023-03-02T19:13:47.757Z,77.01
2023-03-02T19:16:17.850Z,76.27
2023-03-02T19:18:46.966Z,75.36
2023-03-02T19:21:15.440Z,76.51
2023-03-02T19:23:45.558Z,76.23
2023-03-02T19:26:14.754Z,77.24
2023-03-02T19:28:42.922Z,78.11
2023-03-02T19:31:11.570Z,78.41
2023-03-02T19:33:41.075Z,78.80
2023-03-02T19:36:10.322Z,78.24
2023-03-02T19:38:41.646Z,77.37
2023-03-02T19:41:13.435Z,76.99
2023-03-02T19:43:42.884Z,77.78
2023-03-02T19:46:11.138Z,77.57
2023-03-02T19:48:40.367Z,76.18
2023-03-02T19:51:09.493Z,76.65
2023-03-02T19:53:39.336Z,75.32
2023-03-02T19:56:12.978Z,76.67
2023-03-02T19:58:47.823Z,75.35
2023-03-02T20:01:21.913Z,74.33
2023-03-02T20:03:55.606Z,75.35
2023-03-02T20:06:31.331Z,75.94
2023-03-02T20:09:02.612Z,76.68
2023-03-02T20:11:31.512Z,78.35
2023-03-02T20:14:02.667Z,76.77
2023-03-02T20:16:36.595Z,77.58
2023-03-02T20:19:05.776Z,79.41
2023-03-02T20:21:34.830Z,78.41
2023-03-02T20:24:03.245Z,78.98
2023-03-02T20:26:31.878Z,80.12
2023-03-02T20:29:02.330Z,80.73
2023-03-02T20:31:33.328Z,80.21
2023-03-02T20:34:04.230Z,81.35
2023-03-02T20:36:34.943Z,79.08
2023-03-02T20:39:30.894Z,77.47
2023-03-02T20:42:00.260Z,75.96
2023-03-02T20:44:31.163Z,75.38
2023-03-02T20:47:04.683Z,75.09
2023-03-02T20:49:33.157Z,75.04
2023-03-02T20:52:02.360Z,74.83
2023-03-02T20:54:35.268Z,75.13
2023-03-02T20:57:05.534Z,76.28
2023-03-02T20:59:33.833Z,77.15
2023-03-02T21:02:01.961Z,76.10
2023-03-02T21:04:33.335Z,76.39
2023-03-02T21:07:01.527Z,79.83
2023-03-02T21:09:31.240Z,81.28
2023-03-02T21:11:59.435Z,81.74
2023-03-02T21:14:27.937Z,82.53
2023-03-02T21:16:58.653Z,82.22
2023-03-02T21:19:29.222Z,82.85
2023-03-02T21:21:57.757Z,82.81
2023-03-02T21:24:26.272Z,81.56
2023-03-02T21:26:55.523Z,81.29
2023-03-02T21:29:26.803Z,81.26
2023-03-02T21:31:55.107Z,82.05
2023-03-02T21:34:23.424Z,82.40
2023-03-02T21:36:53.834Z,82.48
2023-03-02T21:39:23.795Z,83.49
2023-03-02T21:41:52.921Z,83.94
2023-03-02T21:44:21.451Z,83.85
2023-03-02T21:46:50.978Z,82.44
2023-03-02T21:49:21.419Z,82.63
2023-03-02T21:51:50.181Z,82.46
2023-03-02T21:54:18.384Z,82.71
2023-03-02T21:56:46.704Z,82.69
2023-03-02T21:59:14.955Z,82.33
2023-03-02T22:01:43.080Z,82.41
2023-03-02T22:04:11.550Z,82.42
2023-03-02T22:06:39.834Z,82.60
2023-03-02T22:09:08.000Z,82.33
2023-03-02T22:11:38.640Z,81.89
2023-03-02T22:14:16.225Z,81.56
2023-03-02T22:16:47.985Z,81.76
2023-03-02T22:19:28.556Z,82.44
2023-03-02T22:22:03.332Z,82.24
2023-03-02T22:24:33.167Z,82.65
2023-03-02T22:27:25.712Z,83.07
2023-03-02T22:29:57.900Z,83.01
2023-03-02T22:32:35.595Z,82.26
2023-03-02T22:35:14.911Z,82.47
2023-03-02T22:37:43.128Z,81.89
2023-03-02T22:40:18.198Z,81.26
2023-03-02T22:42:46.377Z,80.97
2023-03-02T22:45:17.755Z,82.00
2023-03-02T22:47:51.459Z,82.85
2023-03-02T22:50:27.195Z,83.34
2023-03-02T22:52:57.695Z,84.04
2023-03-02T22:55:37.262Z,84.16
2023-03-02T22:58:27.226Z,83.24
2023-03-02T23:00:56.679Z,82.45
2023-03-02T23:03:39.405Z,81.71
2023-03-02T23:06:24.603Z,82.82
2023-03-02T23:08:55.037Z,83.84
2023-03-02T23:11:24.833Z,84.42
2023-03-02T23:13:53.894Z,84.50
2023-03-02T23:16:24.959Z,84.84
2023-03-02T23:18:56.515Z,84.60
2023-03-02T23:21:28.551Z,84.88
2023-03-02T23:23:56.869Z,84.43
2023-03-02T23:26:25.039Z,85.38
2023-03-02T23:28:53.462Z,84.47
2023-03-02T23:31:21.763Z,85.02
2023-03-02T23:33:49.980Z,86.38
2023-03-02T23:36:21.068Z,87.17
2023-03-02T23:38:51.040Z,87.43
2023-03-02T23:41:19.457Z,87.56
2023-03-02T23:43:47.684Z,87.63
2023-03-02T23:46:16.028Z,87.05
2023-03-02T23:48:44.529Z,85.92
2023-03-02T23:51:12.902Z,85.16
2023-03-02T23:53:41.028Z,85.54
2023-03-02T23:56:09.132Z,86.62
2023-03-02T23:58:37.959Z,87.60
